sensor_id;sensor_type;location;lat;lon;timestamp;P1;durP1;ratioP1;P2;durP2;ratioP2
35675;SDS011;21790;42.668;23.298;2023-09-30T00:01:22;22.45;;;7.28;;
35675;SDS011;21790;42.668;23.298;2023-09-30T00:03:48;19.35;;;6.70;;
35675;SDS011;21790;42.668;23.298;2023-09-30T00:06:14;14.65;;;7.18;;
35675;SDS011;21790;42.668;23.298;2023-09-30T00:08:43;18.52;;;7.72;;
35675;SDS011;21790;42.668;23.298;2023-09-30T00:11:09;13.07;;;6.72;;
35675;SDS011;21790;42.668;23.298;2023-09-30T00:13:35;18.40;;;7.07;;
35675;SDS011;21790;42.668;23.298;2023-09-30T00:16:00;16.60;;;7.13;;
35675;SDS011;21790;42.668;23.298;2023-09-30T00:18:26;14.10;;;7.03;;
35675;SDS011;21790;42.668;23.298;2023-09-30T00:20:52;13.80;;;7.18;;
35675;SDS011;21790;42.668;23.298;2023-09-30T00:23:20;13.35;;;6.80;;
35675;SDS011;21790;42.668;23.298;2023-09-30T00:25:46;14.50;;;7.25;;
35675;SDS011;21790;42.668;23.298;2023-09-30T00:28:13;14.82;;;6.55;;
35675;SDS011;21790;42.668;23.298;2023-09-30T00:30:39;12.98;;;6.70;;
35675;SDS011;21790;42.668;23.298;2023-09-30T00:33:05;16.58;;;6.97;;
35675;SDS011;21790;42.668;23.298;2023-09-30T00:35:32;24.63;;;8.10;;
35675;SDS011;21790;42.668;23.298;2023-09-30T00:37:58;13.85;;;6.57;;
35675;SDS011;21790;42.668;23.298;2023-09-30T00:40:24;11.90;;;6.55;;
35675;SDS011;21790;42.668;23.298;2023-09-30T00:42:50;11.13;;;6.32;;
35675;SDS011;21790;42.668;23.298;2023-09-30T00:45:16;16.60;;;7.00;;
35675;SDS011;21790;42.668;23.298;2023-09-30T00:47:41;19.50;;;7.43;;
35675;SDS011;21790;42.668;23.298;2023-09-30T00:50:07;14.43;;;6.32;;
35675;SDS011;21790;42.668;23.298;2023-09-30T00:52:35;15.75;;;7.30;;
35675;SDS011;21790;42.668;23.298;2023-09-30T00:55:03;22.85;;;7.68;;
35675;SDS011;21790;42.668;23.298;2023-09-30T00:57:30;14.45;;;6.70;;
35675;SDS011;21790;42.668;23.298;2023-09-30T00:59:57;13.48;;;7.15;;
35675;SDS011;21790;42.668;23.298;2023-09-30T01:02:23;14.55;;;6.30;;
35675;SDS011;21790;42.668;23.298;2023-09-30T01:04:51;12.32;;;6.93;;
35675;SDS011;21790;42.668;23.298;2023-09-30T01:07:17;13.55;;;6.45;;
35675;SDS011;21790;42.668;23.298;2023-09-30T01:09:46;15.77;;;7.00;;
35675;SDS011;21790;42.668;23.298;2023-09-30T01:12:12;13.75;;;7.20;;
35675;SDS011;21790;42.668;23.298;2023-09-30T01:14:37;24.15;;;7.10;;
35675;SDS011;21790;42.668;23.298;2023-09-30T01:17:03;15.82;;;7.05;;
35675;SDS011;21790;42.668;23.298;2023-09-30T01:19:32;11.98;;;6.57;;
35675;SDS011;21790;42.668;23.298;2023-09-30T01:21:58;13.50;;;6.35;;
35675;SDS011;21790;42.668;23.298;2023-09-30T01:24:27;13.43;;;6.82;;
35675;SDS011;21790;42.668;23.298;2023-09-30T01:26:54;11.30;;;6.70;;
35675;SDS011;21790;42.668;23.298;2023-09-30T01:29:20;15.65;;;6.63;;
35675;SDS011;21790;42.668;23.298;2023-09-30T01:31:47;13.75;;;6.57;;
35675;SDS011;21790;42.668;23.298;2023-09-30T01:34:18;14.77;;;7.18;;
35675;SDS011;21790;42.668;23.298;2023-09-30T01:36:53;12.80;;;7.35;;
35675;SDS011;21790;42.668;23.298;2023-09-30T01:39:18;10.32;;;6.85;;
35675;SDS011;21790;42.668;23.298;2023-09-30T01:41:44;11.48;;;6.88;;
35675;SDS011;21790;42.668;23.298;2023-09-30T01:44:11;13.68;;;6.95;;
35675;SDS011;21790;42.668;23.298;2023-09-30T01:46:36;11.40;;;6.38;;
35675;SDS011;21790;42.668;23.298;2023-09-30T01:49:02;10.13;;;6.43;;
35675;SDS011;21790;42.668;23.298;2023-09-30T01:51:31;17.90;;;6.85;;
35675;SDS011;21790;42.668;23.298;2023-09-30T01:54:00;17.67;;;6.82;;
35675;SDS011;21790;42.668;23.298;2023-09-30T01:56:30;14.05;;;6.72;;
35675;SDS011;21790;42.668;23.298;2023-09-30T01:58:55;19.60;;;7.05;;
35675;SDS011;21790;42.668;23.298;2023-09-30T02:01:22;11.55;;;6.18;;
35675;SDS011;21790;42.668;23.298;2023-09-30T02:03:49;12.13;;;6.68;;
35675;SDS011;21790;42.668;23.298;2023-09-30T02:06:17;14.95;;;7.10;;
35675;SDS011;21790;42.668;23.298;2023-09-30T02:08:43;14.38;;;7.10;;
35675;SDS011;21790;42.668;23.298;2023-09-30T02:11:09;13.55;;;6.47;;
35675;SDS011;21790;42.668;23.298;2023-09-30T02:13:35;11.93;;;6.65;;
35675;SDS011;21790;42.668;23.298;2023-09-30T02:16:00;12.18;;;6.63;;
35675;SDS011;21790;42.668;23.298;2023-09-30T02:18:26;15.43;;;6.63;;
35675;SDS011;21790;42.668;23.298;2023-09-30T02:20:53;17.85;;;7.03;;
35675;SDS011;21790;42.668;23.298;2023-09-30T02:23:19;10.75;;;6.40;;
35675;SDS011;21790;42.668;23.298;2023-09-30T02:25:46;10.63;;;6.30;;
35675;SDS011;21790;42.668;23.298;2023-09-30T02:28:13;12.30;;;7.13;;
35675;SDS011;21790;42.668;23.298;2023-09-30T02:30:38;12.52;;;6.60;;
35675;SDS011;21790;42.668;23.298;2023-09-30T02:33:04;15.55;;;6.95;;
35675;SDS011;21790;42.668;23.298;2023-09-30T02:35:34;16.95;;;6.85;;
35675;SDS011;21790;42.668;23.298;2023-09-30T02:38:00;10.50;;;6.70;;
35675;SDS011;21790;42.668;23.298;2023-09-30T02:40:27;15.93;;;6.82;;
35675;SDS011;21790;42.668;23.298;2023-09-30T02:42:52;16.95;;;7.35;;
35675;SDS011;21790;42.668;23.298;2023-09-30T02:45:18;17.80;;;7.20;;
35675;SDS011;21790;42.668;23.298;2023-09-30T02:47:43;14.15;;;7.13;;
35675;SDS011;21790;42.668;23.298;2023-09-30T02:50:09;14.27;;;7.13;;
35675;SDS011;21790;42.668;23.298;2023-09-30T02:52:39;15.82;;;7.82;;
35675;SDS011;21790;42.668;23.298;2023-09-30T02:55:12;15.75;;;7.10;;
35675;SDS011;21790;42.668;23.298;2023-09-30T02:57:40;13.07;;;6.80;;
35675;SDS011;21790;42.668;23.298;2023-09-30T03:00:06;11.80;;;6.93;;
35675;SDS011;21790;42.668;23.298;2023-09-30T03:02:49;13.43;;;6.97;;
35675;SDS011;21790;42.668;23.298;2023-09-30T03:05:17;16.00;;;7.47;;
35675;SDS011;21790;42.668;23.298;2023-09-30T03:07:42;13.20;;;7.35;;
35675;SDS011;21790;42.668;23.298;2023-09-30T03:10:20;11.98;;;7.22;;
35675;SDS011;21790;42.668;23.298;2023-09-30T03:12:55;15.40;;;7.90;;
35675;SDS011;21790;42.668;23.298;2023-09-30T03:15:22;13.90;;;7.40;;
35675;SDS011;21790;42.668;23.298;2023-09-30T03:17:48;13.55;;;7.43;;
35675;SDS011;21790;42.668;23.298;2023-09-30T03:20:16;19.77;;;6.95;;
35675;SDS011;21790;42.668;23.298;2023-09-30T03:22:45;18.67;;;8.65;;
35675;SDS011;21790;42.668;23.298;2023-09-30T03:25:15;16.90;;;7.70;;
35675;SDS011;21790;42.668;23.298;2023-09-30T03:27:45;14.07;;;7.82;;
35675;SDS011;21790;42.668;23.298;2023-09-30T03:30:12;20.95;;;8.05;;
35675;SDS011;21790;42.668;23.298;2023-09-30T03:32:40;19.95;;;7.70;;
35675;SDS011;21790;42.668;23.298;2023-09-30T03:35:10;17.17;;;8.05;;
35675;SDS011;21790;42.668;23.298;2023-09-30T03:37:44;20.20;;;7.28;;
35675;SDS011;21790;42.668;23.298;2023-09-30T03:40:13;20.70;;;7.30;;
35675;SDS011;21790;42.668;23.298;2023-09-30T03:42:45;14.05;;;8.27;;
35675;SDS011;21790;42.668;23.298;2023-09-30T03:45:14;13.98;;;7.82;;
35675;SDS011;21790;42.668;23.298;2023-09-30T03:47:41;21.02;;;6.85;;
35675;SDS011;21790;42.668;23.298;2023-09-30T03:50:07;20.20;;;7.43;;
35675;SDS011;21790;42.668;23.298;2023-09-30T03:52:39;17.50;;;8.55;;
35675;SDS011;21790;42.668;23.298;2023-09-30T03:55:05;12.85;;;7.72;;
35675;SDS011;21790;42.668;23.298;2023-09-30T03:57:31;15.15;;;8.18;;
35675;SDS011;21790;42.668;23.298;2023-09-30T04:00:02;19.13;;;8.15;;
35675;SDS011;21790;42.668;23.298;2023-09-30T04:02:47;20.80;;;7.93;;
35675;SDS011;21790;42.668;23.298;2023-09-30T04:05:14;20.58;;;8.48;;
35675;SDS011;21790;42.668;23.298;2023-09-30T04:07:42;19.77;;;8.65;;
35675;SDS011;21790;42.668;23.298;2023-09-30T04:10:09;17.00;;;8.48;;
35675;SDS011;21790;42.668;23.298;2023-09-30T04:12:39;16.50;;;8.18;;
35675;SDS011;21790;42.668;23.298;2023-09-30T04:15:05;17.48;;;7.68;;
35675;SDS011;21790;42.668;23.298;2023-09-30T04:17:33;12.70;;;7.60;;
35675;SDS011;21790;42.668;23.298;2023-09-30T04:19:59;15.27;;;7.72;;
35675;SDS011;21790;42.668;23.298;2023-09-30T04:22:27;16.25;;;8.05;;
35675;SDS011;21790;42.668;23.298;2023-09-30T04:24:54;17.40;;;8.05;;
35675;SDS011;21790;42.668;23.298;2023-09-30T04:27:20;16.33;;;7.95;;
35675;SDS011;21790;42.668;23.298;2023-09-30T04:29:49;19.17;;;8.52;;
35675;SDS011;21790;42.668;23.298;2023-09-30T04:32:15;18.25;;;8.75;;
35675;SDS011;21790;42.668;23.298;2023-09-30T04:34:41;16.00;;;8.40;;
35675;SDS011;21790;42.668;23.298;2023-09-30T04:37:06;25.33;;;9.32;;
35675;SDS011;21790;42.668;23.298;2023-09-30T04:39:34;19.30;;;9.23;;
35675;SDS011;21790;42.668;23.298;2023-09-30T04:42:01;24.60;;;9.00;;
35675;SDS011;21790;42.668;23.298;2023-09-30T04:44:28;19.30;;;8.68;;
35675;SDS011;21790;42.668;23.298;2023-09-30T04:46:57;19.60;;;8.52;;
35675;SDS011;21790;42.668;23.298;2023-09-30T04:49:27;15.40;;;7.53;;
35675;SDS011;21790;42.668;23.298;2023-09-30T04:51:55;13.45;;;8.18;;
35675;SDS011;21790;42.668;23.298;2023-09-30T04:54:21;18.33;;;8.20;;
35675;SDS011;21790;42.668;23.298;2023-09-30T04:56:47;24.55;;;9.02;;
35675;SDS011;21790;42.668;23.298;2023-09-30T04:59:12;17.80;;;7.95;;
35675;SDS011;21790;42.668;23.298;2023-09-30T05:01:39;16.45;;;7.28;;
35675;SDS011;21790;42.668;23.298;2023-09-30T05:04:04;17.88;;;7.10;;
35675;SDS011;21790;42.668;23.298;2023-09-30T05:06:30;17.23;;;7.65;;
35675;SDS011;21790;42.668;23.298;2023-09-30T05:08:58;16.08;;;7.60;;
35675;SDS011;21790;42.668;23.298;2023-09-30T05:11:25;23.65;;;8.60;;
35675;SDS011;21790;42.668;23.298;2023-09-30T05:13:51;22.58;;;8.13;;
35675;SDS011;21790;42.668;23.298;2023-09-30T05:16:17;15.75;;;7.38;;
35675;SDS011;21790;42.668;23.298;2023-09-30T05:21:13;18.33;;;8.00;;
35675;SDS011;21790;42.668;23.298;2023-09-30T05:23:41;20.80;;;8.15;;
35675;SDS011;21790;42.668;23.298;2023-09-30T05:26:12;15.45;;;8.85;;
35675;SDS011;21790;42.668;23.298;2023-09-30T05:31:06;19.75;;;8.13;;
35675;SDS011;21790;42.668;23.298;2023-09-30T05:33:36;23.08;;;9.60;;
35675;SDS011;21790;42.668;23.298;2023-09-30T05:36:05;23.02;;;9.18;;
35675;SDS011;21790;42.668;23.298;2023-09-30T05:38:30;20.90;;;9.30;;
35675;SDS011;21790;42.668;23.298;2023-09-30T05:40:57;17.98;;;8.40;;
35675;SDS011;21790;42.668;23.298;2023-09-30T05:43:25;18.20;;;9.30;;
35675;SDS011;21790;42.668;23.298;2023-09-30T05:45:57;25.98;;;9.77;;
35675;SDS011;21790;42.668;23.298;2023-09-30T05:48:23;22.17;;;10.17;;
35675;SDS011;21790;42.668;23.298;2023-09-30T05:50:49;19.48;;;8.07;;
35675;SDS011;21790;42.668;23.298;2023-09-30T05:53:15;19.38;;;8.82;;
35675;SDS011;21790;42.668;23.298;2023-09-30T05:55:41;18.50;;;9.20;;
35675;SDS011;21790;42.668;23.298;2023-09-30T05:58:07;16.88;;;9.13;;
35675;SDS011;21790;42.668;23.298;2023-09-30T06:00:38;22.00;;;9.10;;
35675;SDS011;21790;42.668;23.298;2023-09-30T06:03:05;14.88;;;8.60;;
35675;SDS011;21790;42.668;23.298;2023-09-30T06:05:31;29.85;;;9.02;;
35675;SDS011;21790;42.668;23.298;2023-09-30T06:07:59;15.48;;;8.60;;
35675;SDS011;21790;42.668;23.298;2023-09-30T06:10:29;32.75;;;9.18;;
35675;SDS011;21790;42.668;23.298;2023-09-30T06:12:55;21.00;;;8.13;;
35675;SDS011;21790;42.668;23.298;2023-09-30T06:15:22;18.30;;;9.00;;
35675;SDS011;21790;42.668;23.298;2023-09-30T06:17:51;16.65;;;9.35;;
35675;SDS011;21790;42.668;23.298;2023-09-30T06:20:20;22.17;;;8.85;;
35675;SDS011;21790;42.668;23.298;2023-09-30T06:22:56;18.40;;;9.50;;
35675;SDS011;21790;42.668;23.298;2023-09-30T06:25:24;25.00;;;9.80;;
35675;SDS011;21790;42.668;23.298;2023-09-30T06:30:52;23.13;;;10.87;;
35675;SDS011;21790;42.668;23.298;2023-09-30T06:33:18;21.63;;;12.35;;
35675;SDS011;21790;42.668;23.298;2023-09-30T06:35:45;22.50;;;10.30;;
35675;SDS011;21790;42.668;23.298;2023-09-30T06:38:18;32.25;;;11.07;;
35675;SDS011;21790;42.668;23.298;2023-09-30T06:40:44;30.35;;;10.68;;
35675;SDS011;21790;42.668;23.298;2023-09-30T06:43:14;23.17;;;10.65;;
35675;SDS011;21790;42.668;23.298;2023-09-30T06:49:02;32.67;;;9.25;;
35675;SDS011;21790;42.668;23.298;2023-09-30T06:51:27;30.40;;;8.60;;
35675;SDS011;21790;42.668;23.298;2023-09-30T07:01:14;26.02;;;7.82;;
35675;SDS011;21790;42.668;23.298;2023-09-30T07:30:52;19.15;;;6.30;;
35675;SDS011;21790;42.668;23.298;2023-09-30T07:33:20;17.02;;;5.28;;
35675;SDS011;21790;42.668;23.298;2023-09-30T07:35:47;15.57;;;5.70;;
35675;SDS011;21790;42.668;23.298;2023-09-30T07:40:59;22.95;;;5.60;;
35675;SDS011;21790;42.668;23.298;2023-09-30T07:43:28;17.05;;;5.68;;
35675;SDS011;21790;42.668;23.298;2023-09-30T07:45:54;14.77;;;5.70;;
35675;SDS011;21790;42.668;23.298;2023-09-30T07:48:20;13.77;;;5.55;;
35675;SDS011;21790;42.668;23.298;2023-09-30T07:50:46;16.48;;;5.55;;
35675;SDS011;21790;42.668;23.298;2023-09-30T07:53:12;16.95;;;6.75;;
35675;SDS011;21790;42.668;23.298;2023-09-30T07:55:42;15.30;;;6.00;;
35675;SDS011;21790;42.668;23.298;2023-09-30T07:58:07;17.13;;;5.90;;
35675;SDS011;21790;42.668;23.298;2023-09-30T08:17:59;22.40;;;6.70;;
35675;SDS011;21790;42.668;23.298;2023-09-30T08:20:27;13.25;;;4.65;;
35675;SDS011;21790;42.668;23.298;2023-09-30T08:23:04;14.15;;;5.13;;
35675;SDS011;21790;42.668;23.298;2023-09-30T08:25:35;13.93;;;4.95;;
35675;SDS011;21790;42.668;23.298;2023-09-30T08:30:36;10.32;;;5.80;;
35675;SDS011;21790;42.668;23.298;2023-09-30T08:33:02;13.65;;;5.50;;
35675;SDS011;21790;42.668;23.298;2023-09-30T08:43:03;18.05;;;5.97;;
35675;SDS011;21790;42.668;23.298;2023-09-30T08:50:40;19.48;;;6.45;;
35675;SDS011;21790;42.668;23.298;2023-09-30T08:53:14;12.80;;;6.68;;
35675;SDS011;21790;42.668;23.298;2023-09-30T08:58:11;16.25;;;6.32;;
35675;SDS011;21790;42.668;23.298;2023-09-30T09:00:43;9.70;;;6.05;;
35675;SDS011;21790;42.668;23.298;2023-09-30T09:03:12;13.77;;;6.55;;
35675;SDS011;21790;42.668;23.298;2023-09-30T09:05:39;18.48;;;7.18;;
35675;SDS011;21790;42.668;23.298;2023-09-30T09:16:34;19.33;;;6.90;;
35675;SDS011;21790;42.668;23.298;2023-09-30T09:24:36;16.95;;;7.22;;
35675;SDS011;21790;42.668;23.298;2023-09-30T09:27:17;20.50;;;7.25;;
35675;SDS011;21790;42.668;23.298;2023-09-30T09:32:17;15.50;;;6.85;;
35675;SDS011;21790;42.668;23.298;2023-09-30T09:34:43;13.27;;;7.35;;
35675;SDS011;21790;42.668;23.298;2023-09-30T09:37:13;15.98;;;7.15;;
35675;SDS011;21790;42.668;23.298;2023-09-30T11:51:46;10.48;;;4.63;;
35675;SDS011;21790;42.668;23.298;2023-09-30T11:54:13;9.15;;;4.55;;
35675;SDS011;21790;42.668;23.298;2023-09-30T11:56:46;24.33;;;4.53;;
35675;SDS011;21790;42.668;23.298;2023-09-30T12:01:49;11.55;;;4.35;;
35675;SDS011;21790;42.668;23.298;2023-09-30T12:04:16;13.15;;;4.60;;
35675;SDS011;21790;42.668;23.298;2023-09-30T12:09:20;13.15;;;5.13;;
35675;SDS011;21790;42.668;23.298;2023-09-30T12:11:54;8.93;;;4.20;;
35675;SDS011;21790;42.668;23.298;2023-09-30T12:14:25;8.15;;;4.18;;
35675;SDS011;21790;42.668;23.298;2023-09-30T12:16:53;13.90;;;4.78;;
35675;SDS011;21790;42.668;23.298;2023-09-30T12:19:25;10.25;;;4.32;;
35675;SDS011;21790;42.668;23.298;2023-09-30T12:21:53;9.48;;;4.55;;
35675;SDS011;21790;42.668;23.298;2023-09-30T12:24:37;13.95;;;4.70;;
35675;SDS011;21790;42.668;23.298;2023-09-30T12:29:40;9.77;;;5.28;;
35675;SDS011;21790;42.668;23.298;2023-09-30T12:32:07;7.85;;;4.60;;
35675;SDS011;21790;42.668;23.298;2023-09-30T12:34:46;11.52;;;4.07;;
35675;SDS011;21790;42.668;23.298;2023-09-30T12:37:13;8.60;;;4.20;;
35675;SDS011;21790;42.668;23.298;2023-09-30T12:39:42;11.32;;;4.45;;
35675;SDS011;21790;42.668;23.298;2023-09-30T12:42:18;9.75;;;4.07;;
35675;SDS011;21790;42.668;23.298;2023-09-30T12:44:49;13.52;;;4.53;;
35675;SDS011;21790;42.668;23.298;2023-09-30T12:47:15;8.77;;;4.18;;
35675;SDS011;21790;42.668;23.298;2023-09-30T12:49:43;12.43;;;4.70;;
35675;SDS011;21790;42.668;23.298;2023-09-30T12:52:20;8.85;;;4.90;;
35675;SDS011;21790;42.668;23.298;2023-09-30T12:54:46;15.45;;;4.70;;
35675;SDS011;21790;42.668;23.298;2023-09-30T12:57:17;8.48;;;4.45;;
35675;SDS011;21790;42.668;23.298;2023-09-30T12:59:53;10.35;;;4.40;;
35675;SDS011;21790;42.668;23.298;2023-09-30T13:02:22;8.63;;;5.00;;
35675;SDS011;21790;42.668;23.298;2023-09-30T13:04:49;10.15;;;4.40;;
35675;SDS011;21790;42.668;23.298;2023-09-30T13:07:14;11.48;;;4.78;;
35675;SDS011;21790;42.668;23.298;2023-09-30T13:09:42;17.92;;;5.22;;
35675;SDS011;21790;42.668;23.298;2023-09-30T13:12:08;8.77;;;4.90;;
35675;SDS011;21790;42.668;23.298;2023-09-30T13:14:41;15.50;;;5.07;;
35675;SDS011;21790;42.668;23.298;2023-09-30T13:17:16;11.20;;;5.18;;
35675;SDS011;21790;42.668;23.298;2023-09-30T13:19:49;10.98;;;4.85;;
35675;SDS011;21790;42.668;23.298;2023-09-30T13:22:17;11.70;;;4.70;;
35675;SDS011;21790;42.668;23.298;2023-09-30T13:25:03;12.60;;;4.93;;
35675;SDS011;21790;42.668;23.298;2023-09-30T13:27:31;11.80;;;5.63;;
35675;SDS011;21790;42.668;23.298;2023-09-30T13:30:06;12.65;;;5.28;;
35675;SDS011;21790;42.668;23.298;2023-09-30T13:32:48;10.00;;;4.40;;
35675;SDS011;21790;42.668;23.298;2023-09-30T13:38:02;8.63;;;4.45;;
35675;SDS011;21790;42.668;23.298;2023-09-30T13:40:30;18.85;;;5.13;;
35675;SDS011;21790;42.668;23.298;2023-09-30T13:42:57;9.35;;;5.13;;
35675;SDS011;21790;42.668;23.298;2023-09-30T13:48:12;12.00;;;5.40;;
35675;SDS011;21790;42.668;23.298;2023-09-30T13:50:38;11.98;;;4.75;;
35675;SDS011;21790;42.668;23.298;2023-09-30T13:53:05;10.95;;;4.70;;
35675;SDS011;21790;42.668;23.298;2023-09-30T13:55:37;13.18;;;5.15;;
35675;SDS011;21790;42.668;23.298;2023-09-30T13:58:05;12.02;;;5.22;;
35675;SDS011;21790;42.668;23.298;2023-09-30T14:00:33;8.18;;;4.38;;
35675;SDS011;21790;42.668;23.298;2023-09-30T14:03:00;13.50;;;4.80;;
35675;SDS011;21790;42.668;23.298;2023-09-30T14:07:57;4.85;;;4.22;;
35675;SDS011;21790;42.668;23.298;2023-09-30T14:10:23;10.38;;;4.20;;
35675;SDS011;21790;42.668;23.298;2023-09-30T14:13:07;9.57;;;4.57;;
35675;SDS011;21790;42.668;23.298;2023-09-30T14:15:49;10.27;;;5.22;;
35675;SDS011;21790;42.668;23.298;2023-09-30T14:18:16;10.75;;;4.75;;
35675;SDS011;21790;42.668;23.298;2023-09-30T14:20:48;8.48;;;4.47;;
35675;SDS011;21790;42.668;23.298;2023-09-30T14:23:16;8.20;;;4.70;;
35675;SDS011;21790;42.668;23.298;2023-09-30T14:28:22;8.13;;;4.72;;
35675;SDS011;21790;42.668;23.298;2023-09-30T14:30:54;9.80;;;5.03;;
35675;SDS011;21790;42.668;23.298;2023-09-30T14:33:20;11.65;;;6.50;;
35675;SDS011;21790;42.668;23.298;2023-09-30T14:41:10;6.88;;;4.25;;
35675;SDS011;21790;42.668;23.298;2023-09-30T14:46:38;15.15;;;5.28;;
35675;SDS011;21790;42.668;23.298;2023-09-30T14:49:04;9.77;;;4.70;;
35675;SDS011;21790;42.668;23.298;2023-09-30T14:51:37;7.15;;;4.28;;
35675;SDS011;21790;42.668;23.298;2023-09-30T14:54:03;10.43;;;4.40;;
35675;SDS011;21790;42.668;23.298;2023-09-30T14:56:32;10.32;;;4.53;;
35675;SDS011;21790;42.668;23.298;2023-09-30T14:59:09;13.85;;;4.50;;
35675;SDS011;21790;42.668;23.298;2023-09-30T15:04:12;17.55;;;4.70;;
35675;SDS011;21790;42.668;23.298;2023-09-30T15:06:38;10.80;;;4.25;;
35675;SDS011;21790;42.668;23.298;2023-09-30T15:09:12;12.35;;;4.75;;
35675;SDS011;21790;42.668;23.298;2023-09-30T15:14:22;15.25;;;3.97;;
35675;SDS011;21790;42.668;23.298;2023-09-30T15:16:47;11.73;;;4.55;;
35675;SDS011;21790;42.668;23.298;2023-09-30T15:22:18;15.18;;;5.00;;
35675;SDS011;21790;42.668;23.298;2023-09-30T15:27:14;12.57;;;6.25;;
35675;SDS011;21790;42.668;23.298;2023-09-30T15:29:52;11.68;;;4.57;;
35675;SDS011;21790;42.668;23.298;2023-09-30T15:32:25;17.65;;;4.78;;
35675;SDS011;21790;42.668;23.298;2023-09-30T15:34:50;14.65;;;4.20;;
35675;SDS011;21790;42.668;23.298;2023-09-30T15:37:21;10.02;;;4.78;;
35675;SDS011;21790;42.668;23.298;2023-09-30T15:39:46;11.88;;;5.90;;
35675;SDS011;21790;42.668;23.298;2023-09-30T15:42:18;24.45;;;5.13;;
35675;SDS011;21790;42.668;23.298;2023-09-30T15:44:44;11.25;;;4.32;;
35675;SDS011;21790;42.668;23.298;2023-09-30T15:47:12;10.85;;;4.80;;
35675;SDS011;21790;42.668;23.298;2023-09-30T15:49:40;13.20;;;4.57;;
35675;SDS011;21790;42.668;23.298;2023-09-30T15:52:17;14.97;;;4.47;;
35675;SDS011;21790;42.668;23.298;2023-09-30T15:54:45;16.13;;;4.97;;
35675;SDS011;21790;42.668;23.298;2023-09-30T15:59:40;19.05;;;5.38;;
35675;SDS011;21790;42.668;23.298;2023-09-30T16:05:02;12.10;;;5.47;;
35675;SDS011;21790;42.668;23.298;2023-09-30T16:07:29;18.30;;;5.47;;
35675;SDS011;21790;42.668;23.298;2023-09-30T16:09:54;13.30;;;5.38;;
35675;SDS011;21790;42.668;23.298;2023-09-30T16:12:21;11.57;;;5.47;;
35675;SDS011;21790;42.668;23.298;2023-09-30T16:14:50;16.60;;;7.15;;
35675;SDS011;21790;42.668;23.298;2023-09-30T16:17:18;13.10;;;5.70;;
35675;SDS011;21790;42.668;23.298;2023-09-30T16:19:46;14.80;;;5.65;;
35675;SDS011;21790;42.668;23.298;2023-09-30T16:22:11;32.03;;;7.30;;
35675;SDS011;21790;42.668;23.298;2023-09-30T16:27:20;14.48;;;7.25;;
35675;SDS011;21790;42.668;23.298;2023-09-30T16:29:47;23.17;;;7.03;;
35675;SDS011;21790;42.668;23.298;2023-09-30T16:32:13;17.73;;;5.93;;
35675;SDS011;21790;42.668;23.298;2023-09-30T16:34:40;24.10;;;8.40;;
35675;SDS011;21790;42.668;23.298;2023-09-30T16:37:14;27.10;;;9.77;;
35675;SDS011;21790;42.668;23.298;2023-09-30T16:39:40;15.48;;;7.40;;
35675;SDS011;21790;42.668;23.298;2023-09-30T16:42:18;18.67;;;6.88;;
35675;SDS011;21790;42.668;23.298;2023-09-30T16:47:21;11.63;;;6.05;;
35675;SDS011;21790;42.668;23.298;2023-09-30T16:52:18;18.00;;;8.52;;
35675;SDS011;21790;42.668;23.298;2023-09-30T16:54:43;20.73;;;8.63;;
35675;SDS011;21790;42.668;23.298;2023-09-30T16:57:10;30.77;;;14.98;;
35675;SDS011;21790;42.668;23.298;2023-09-30T16:59:35;26.60;;;8.27;;
35675;SDS011;21790;42.668;23.298;2023-09-30T17:02:07;19.63;;;10.38;;
35675;SDS011;21790;42.668;23.298;2023-09-30T17:04:42;25.77;;;8.07;;
35675;SDS011;21790;42.668;23.298;2023-09-30T17:07:08;21.77;;;7.90;;
35675;SDS011;21790;42.668;23.298;2023-09-30T17:09:35;18.10;;;9.07;;
35675;SDS011;21790;42.668;23.298;2023-09-30T17:12:15;27.13;;;8.45;;
35675;SDS011;21790;42.668;23.298;2023-09-30T17:14:42;12.15;;;6.90;;
35675;SDS011;21790;42.668;23.298;2023-09-30T17:17:10;12.82;;;7.30;;
35675;SDS011;21790;42.668;23.298;2023-09-30T17:19:36;11.85;;;6.63;;
35675;SDS011;21790;42.668;23.298;2023-09-30T17:22:02;18.38;;;6.78;;
35675;SDS011;21790;42.668;23.298;2023-09-30T17:24:32;14.45;;;6.72;;
35675;SDS011;21790;42.668;23.298;2023-09-30T17:26:59;15.68;;;7.43;;
35675;SDS011;21790;42.668;23.298;2023-09-30T17:31:55;16.73;;;6.95;;
35675;SDS011;21790;42.668;23.298;2023-09-30T17:34:20;18.25;;;7.50;;
35675;SDS011;21790;42.668;23.298;2023-09-30T17:36:46;17.85;;;8.60;;
35675;SDS011;21790;42.668;23.298;2023-09-30T17:39:18;27.65;;;9.65;;
35675;SDS011;21790;42.668;23.298;2023-09-30T17:41:45;21.42;;;9.30;;
35675;SDS011;21790;42.668;23.298;2023-09-30T17:44:10;18.95;;;11.27;;
35675;SDS011;21790;42.668;23.298;2023-09-30T17:46:49;25.48;;;9.23;;
35675;SDS011;21790;42.668;23.298;2023-09-30T17:49:21;17.95;;;8.00;;
35675;SDS011;21790;42.668;23.298;2023-09-30T17:51:48;28.08;;;8.88;;
35675;SDS011;21790;42.668;23.298;2023-09-30T17:54:19;19.67;;;8.65;;
35675;SDS011;21790;42.668;23.298;2023-09-30T17:56:45;16.75;;;7.75;;
35675;SDS011;21790;42.668;23.298;2023-09-30T18:01:54;24.92;;;9.65;;
35675;SDS011;21790;42.668;23.298;2023-09-30T18:04:20;38.25;;;14.65;;
35675;SDS011;21790;42.668;23.298;2023-09-30T18:06:46;27.73;;;9.18;;
35675;SDS011;21790;42.668;23.298;2023-09-30T18:09:25;21.13;;;8.48;;
35675;SDS011;21790;42.668;23.298;2023-09-30T18:14:36;25.30;;;9.77;;
35675;SDS011;21790;42.668;23.298;2023-09-30T18:20:04;25.02;;;9.13;;
35675;SDS011;21790;42.668;23.298;2023-09-30T18:22:39;27.55;;;11.68;;
35675;SDS011;21790;42.668;23.298;2023-09-30T18:25:27;24.70;;;8.98;;
35675;SDS011;21790;42.668;23.298;2023-09-30T18:27:57;29.90;;;8.52;;
35675;SDS011;21790;42.668;23.298;2023-09-30T18:35:48;19.42;;;8.73;;
35675;SDS011;21790;42.668;23.298;2023-09-30T18:38:16;19.00;;;9.80;;
35675;SDS011;21790;42.668;23.298;2023-09-30T18:40:42;15.00;;;8.93;;
35675;SDS011;21790;42.668;23.298;2023-09-30T18:43:15;28.27;;;10.05;;
35675;SDS011;21790;42.668;23.298;2023-09-30T18:45:48;19.25;;;9.10;;
35675;SDS011;21790;42.668;23.298;2023-09-30T18:48:18;21.08;;;8.65;;
35675;SDS011;21790;42.668;23.298;2023-09-30T18:56:21;25.63;;;8.68;;
35675;SDS011;21790;42.668;23.298;2023-09-30T18:58:58;19.58;;;9.43;;
35675;SDS011;21790;42.668;23.298;2023-09-30T19:01:27;25.08;;;11.02;;
35675;SDS011;21790;42.668;23.298;2023-09-30T19:07:19;28.38;;;10.50;;
35675;SDS011;21790;42.668;23.298;2023-09-30T19:09:45;16.35;;;9.10;;
35675;SDS011;21790;42.668;23.298;2023-09-30T19:12:12;26.38;;;9.32;;
35675;SDS011;21790;42.668;23.298;2023-09-30T19:14:37;20.23;;;8.65;;
35675;SDS011;21790;42.668;23.298;2023-09-30T19:17:05;19.58;;;8.93;;
35675;SDS011;21790;42.668;23.298;2023-09-30T19:19:32;20.60;;;8.98;;
35675;SDS011;21790;42.668;23.298;2023-09-30T19:22:02;27.02;;;9.57;;
35675;SDS011;21790;42.668;23.298;2023-09-30T19:24:29;19.27;;;8.60;;
35675;SDS011;21790;42.668;23.298;2023-09-30T19:26:55;35.70;;;11.38;;
35675;SDS011;21790;42.668;23.298;2023-09-30T19:29:21;22.90;;;9.48;;
35675;SDS011;21790;42.668;23.298;2023-09-30T19:34:31;20.85;;;8.98;;
35675;SDS011;21790;42.668;23.298;2023-09-30T19:36:57;30.23;;;12.23;;
35675;SDS011;21790;42.668;23.298;2023-09-30T19:39:25;24.88;;;10.25;;